Time;durP1;ratioP1;P1;durP2;ratioP2;P2;SDS_P1;SDS_P2;PMS_P1;PMS_P2;Temp;Humidity;BMP_temperature;BMP_pressure;BME280_temperature;BME280_humidity;BME280_pressure;Samples;Min_cycle;Max_cycle;Signal;HPM_P1;HPM_P2
2021/01/17 00:01:44;;;;;;;5.13;3.58;;;;;;;-5.51;78.73;100838.19;5081220;28;20079;-71
2021/01/17 00:04:10;;;;;;;6.05;3.83;;;;;;;-5.47;79.41;100839.28;5065669;28;20029;-71
2021/01/17 00:06:36;;;;;;;5.35;3.20;;;;;;;-5.25;79.26;100873.53;5065668;28;20062;-70
2021/01/17 00:09:02;;;;;;;5.68;3.30;;;;;;;-5.24;79.14;100883.75;5064223;28;20029;-70
2021/01/17 00:11:28;;;;;;;5.82;3.60;;;;;;;-5.25;79.25;100874.44;5065809;28;20545;-72
2021/01/17 00:13:53;;;;;;;4.90;2.58;;;;;;;-5.23;79.18;100862.75;5065580;28;20053;-71
2021/01/17 00:16:18;;;;;;;8.10;4.10;;;;;;;-5.28;79.24;100864.09;5064301;28;20093;-71
2021/01/17 00:18:46;;;;;;;7.20;4.28;;;;;;;-5.27;79.48;100870.06;5065636;28;20037;-71
2021/01/17 00:21:11;;;;;;;4.70;2.08;;;;;;;-5.03;79.33;100873.25;5064442;28;20029;-72
2021/01/17 00:23:37;;;;;;;3.17;1.77;;;;;;;-5.04;78.56;100857.94;5065295;28;20033;-72
2021/01/17 00:26:02;;;;;;;4.25;2.55;;;;;;;-5.02;78.94;100867.41;5065521;28;20062;-72
2021/01/17 00:28:28;;;;;;;2.97;2.63;;;;;;;-4.91;78.57;100878.22;5065392;28;20051;-71
2021/01/17 00:30:53;;;;;;;1.83;1.73;;;;;;;-5.05;79.08;100867.22;5065484;28;20024;-72
2021/01/17 00:33:18;;;;;;;3.42;2.15;;;;;;;-4.82;78.81;100880.41;5065226;28;20037;-71
2021/01/17 00:35:44;;;;;;;7.05;3.85;;;;;;;-5.03;78.84;100874.91;5065303;28;20047;-71
2021/01/17 00:38:09;;;;;;;6.40;2.75;;;;;;;-5.15;79.81;100875.88;5065414;28;20029;-71
2021/01/17 00:40:35;;;;;;;5.47;3.25;;;;;;;-5.25;79.61;100844.06;5065038;28;20052;-72
2021/01/17 00:43:00;;;;;;;4.85;2.33;;;;;;;-4.75;78.41;100864.84;5063519;28;20020;-71
2021/01/17 00:45:28;;;;;;;6.00;1.90;;;;;;;-4.70;78.57;100859.16;5065119;28;20058;-71
2021/01/17 00:47:54;;;;;;;5.78;3.60;;;;;;;-5.04;79.56;100870.59;5065205;28;20025;-71
2021/01/17 00:50:20;;;;;;;5.47;2.53;;;;;;;-4.87;79.35;100866.59;5063631;28;20059;-71
2021/01/17 00:52:53;;;;;;;2.20;1.88;;;;;;;-4.67;78.67;100855.16;5064760;28;20037;-72
2021/01/17 00:55:19;;;;;;;6.70;2.75;;;;;;;-4.79;79.10;100862.88;5064739;28;20028;-72
2021/01/17 00:57:44;;;;;;;4.13;2.47;;;;;;;-4.74;78.89;100868.22;5065126;28;20024;-72
2021/01/17 01:00:11;;;;;;;3.53;1.85;;;;;;;-4.51;78.25;100871.28;5080335;28;20037;-72
2021/01/17 01:02:38;;;;;;;2.75;1.40;;;;;;;-5.06;78.69;100781.03;5064703;28;20039;-70
2021/01/17 01:05:04;;;;;;;1.65;1.27;;;;;;;-4.72;79.34;100866.66;5064752;28;20051;-71
2021/01/17 01:07:30;;;;;;;2.75;1.73;;;;;;;-4.69;79.57;100874.47;5064542;28;20047;-73
2021/01/17 01:09:55;;;;;;;5.45;3.42;;;;;;;-4.88;79.93;100869.91;5064546;28;20029;-73
2021/01/17 01:12:21;;;;;;;3.38;1.95;;;;;;;-4.87;80.36;100877.59;5064870;28;20037;-72
2021/01/17 01:14:46;;;;;;;6.78;3.30;;;;;;;-4.99;80.48;100861.66;5064583;28;20029;-72
2021/01/17 01:17:12;;;;;;;4.40;2.85;;;;;;;-4.97;80.75;100863.50;5064552;28;20085;-72
2021/01/17 01:19:37;;;;;;;5.28;3.00;;;;;;;-4.91;80.96;100869.72;5064686;28;20029;-72
2021/01/17 01:22:04;;;;;;;7.47;4.10;;;;;;;-4.92;80.88;100870.50;5064647;28;20547;-72
2021/01/17 01:24:32;;;;;;;6.65;3.38;;;;;;;-4.87;81.05;100877.59;5064169;28;20500;-72
2021/01/17 01:26:58;;;;;;;5.32;2.55;;;;;;;-4.74;80.46;100878.34;5064475;28;20051;-72
2021/01/17 01:29:23;;;;;;;6.80;2.90;;;;;;;-4.78;80.41;100876.44;5064507;28;20084;-71
2021/01/17 01:31:49;;;;;;;7.43;4.22;;;;;;;-4.78;80.36;100887.44;5064340;28;20501;-72
2021/01/17 01:34:14;;;;;;;7.30;4.60;;;;;;;-4.90;80.93;100887.53;5064410;28;20043;-72
2021/01/17 01:36:41;;;;;;;8.18;4.75;;;;;;;-4.87;81.07;100882.66;5064110;28;20074;-72
2021/01/17 01:39:08;;;;;;;10.00;3.78;;;;;;;-4.74;81.07;100888.50;5078823;28;20058;-72
2021/01/17 01:41:36;;;;;;;7.65;2.65;;;;;;;-4.63;80.63;100891.69;5078753;28;20052;-74
2021/01/17 01:44:03;;;;;;;4.03;2.72;;;;;;;-4.61;79.86;100880.88;5063649;28;20603;-72
2021/01/17 01:46:29;;;;;;;1.92;1.35;;;;;;;-4.37;79.40;100879.72;5064119;28;20055;-72
2021/01/17 01:48:56;;;;;;;4.32;2.45;;;;;;;-4.42;78.93;100870.97;5079457;28;20039;-72
2021/01/17 01:51:25;;;;;;;4.80;3.08;;;;;;;-4.65;79.56;100858.66;5064117;28;20044;-73
2021/01/17 01:53:53;;;;;;;3.78;2.33;;;;;;;-4.68;80.05;100862.69;5064050;28;20321;-71
2021/01/17 01:56:19;;;;;;;7.82;3.85;;;;;;;-4.69;80.13;100866.84;5063532;28;20047;-72
2021/01/17 01:58:45;;;;;;;5.13;2.53;;;;;;;-4.68;79.95;100870.28;5063944;28;20028;-71
2021/01/17 02:01:11;;;;;;;1.70;1.23;;;;;;;-4.42;79.58;100873.50;5063951;28;20029;-73
2021/01/17 02:03:36;;;;;;;4.82;2.55;;;;;;;-4.67;80.05;100872.00;5062302;28;20074;-72
2021/01/17 02:06:03;;;;;;;5.68;3.17;;;;;;;-4.63;80.16;100872.28;5063737;28;20048;-73
2021/01/17 02:09:00;;;;;;;3.50;2.17;;;;;;;-4.50;79.93;100870.50;5063434;28;20025;-72
2021/01/17 02:11:51;;;;;;;3.33;2.47;;;;;;;-4.55;80.01;100872.75;5062384;28;20039;-72
2021/01/17 02:14:24;;;;;;;3.30;2.22;;;;;;;-4.52;80.30;100867.03;5063654;28;20029;-72
2021/01/17 02:16:53;;;;;;;4.28;2.92;;;;;;;-4.63;80.26;100871.41;5063682;28;20025;-72
2021/01/17 02:19:20;;;;;;;4.55;2.42;;;;;;;-4.63;80.46;100879.00;5062288;28;20089;-72
2021/01/17 02:21:53;;;;;;;9.30;2.80;;;;;;;-4.78;80.87;100867.19;5062255;28;20051;-72
2021/01/17 02:24:27;;;;;;;7.88;3.78;;;;;;;-4.74;81.29;100865.69;5063447;28;20029;-71
2021/01/17 02:26:52;;;;;;;3.90;1.98;;;;;;;-4.64;80.63;100873.09;5063795;28;20028;-71
2021/01/17 02:29:18;;;;;;;5.15;3.20;;;;;;;-4.63;81.01;100868.88;5063580;28;20029;-71
2021/01/17 02:31:43;;;;;;;6.45;3.03;;;;;;;-4.58;80.88;100862.44;5063513;28;20078;-70
2021/01/17 02:34:09;;;;;;;7.20;4.28;;;;;;;-4.72;81.80;100871.72;5063523;28;20477;-72
2021/01/17 02:37:01;;;;;;;8.98;4.03;;;;;;;-4.65;81.65;100865.41;5062333;28;20021;-71
2021/01/17 02:40:04;;;;;;;2.92;2.00;;;;;;;-4.58;81.75;100864.13;5062395;28;20029;-71
2021/01/17 02:42:31;;;;;;;4.15;2.40;;;;;;;-4.55;81.52;100864.31;5063830;28;20067;-70
2021/01/17 02:44:58;;;;;;;7.20;3.92;;;;;;;-4.55;81.94;100854.16;5063597;28;20028;-71
2021/01/17 02:47:23;;;;;;;6.50;3.88;;;;;;;-4.56;81.88;100853.28;5063527;28;20025;-72
2021/01/17 02:49:51;;;;;;;5.85;3.10;;;;;;;-4.50;81.81;100858.72;5063448;28;20104;-72
2021/01/17 02:52:26;;;;;;;6.68;3.70;;;;;;;-4.46;81.85;100858.91;5078702;28;20043;-71
2021/01/17 02:54:54;;;;;;;6.70;3.92;;;;;;;-4.37;81.50;100861.97;5063325;28;20032;-73
2021/01/17 02:57:26;;;;;;;6.18;3.42;;;;;;;-4.35;81.55;100862.94;5061750;28;20052;-72
2021/01/17 03:00:02;;;;;;;4.28;2.30;;;;;;;-4.33;81.57;100868.13;5063458;28;20021;-71
2021/01/17 03:02:37;;;;;;;7.82;3.95;;;;;;;-4.33;81.79;100863.03;5063315;28;20025;-72
2021/01/17 03:05:05;;;;;;;6.93;4.03;;;;;;;-4.33;81.53;100848.72;5061819;28;20025;-72
2021/01/17 03:07:34;;;;;;;8.05;4.35;;;;;;;-4.23;81.62;100857.72;5063361;28;20021;-72
2021/01/17 03:10:05;;;;;;;8.90;4.78;;;;;;;-4.17;81.87;100859.75;5067083;28;20376;-72
2021/01/17 03:12:31;;;;;;;7.32;4.63;;;;;;;-4.07;81.91;100863.72;5067081;28;20048;-72
2021/01/17 03:14:59;;;;;;;4.45;2.88;;;;;;;-4.01;81.46;100859.00;5067059;28;20028;-71
2021/01/17 03:17:27;;;;;;;5.45;2.97;;;;;;;-3.93;81.43;100861.97;5067120;28;20389;-72
2021/01/17 03:19:52;;;;;;;7.13;3.47;;;;;;;-3.95;80.98;100868.63;5066958;28;20047;-71
2021/01/17 03:22:18;;;;;;;9.60;3.90;;;;;;;-3.95;80.99;100866.09;5065582;28;20040;-72
2021/01/17 03:24:43;;;;;;;6.90;3.75;;;;;;;-4.00;81.21;100869.25;5066471;28;20079;-71
2021/01/17 03:27:08;;;;;;;9.07;4.53;;;;;;;-3.99;81.36;100877.69;5066739;28;20029;-72
2021/01/17 03:29:34;;;;;;;7.22;4.03;;;;;;;-4.11;81.43;100855.94;5066591;28;20025;-71
2021/01/17 03:31:59;;;;;;;6.72;4.13;;;;;;;-4.05;81.69;100869.75;5066302;28;20374;-72
2021/01/17 03:34:24;;;;;;;7.55;4.15;;;;;;;-3.95;81.69;100869.50;5066488;28;20088;-71
2021/01/17 03:36:50;;;;;;;8.43;3.97;;;;;;;-3.88;81.60;100866.53;5066390;28;20025;-72
2021/01/17 03:39:15;;;;;;;7.65;4.40;;;;;;;-3.82;81.18;100872.75;5066231;28;20104;-71
2021/01/17 03:41:41;;;;;;;8.38;4.50;;;;;;;-3.88;81.24;100874.13;5066536;28;20009;-70
2021/01/17 03:44:06;;;;;;;8.02;4.18;;;;;;;-3.83;81.47;100871.88;5081731;28;20036;-70
2021/01/17 03:46:32;;;;;;;6.57;3.22;;;;;;;-3.79;81.17;100861.13;5066435;28;20021;-70
2021/01/17 03:48:58;;;;;;;5.18;2.67;;;;;;;-3.80;80.85;100863.56;5066342;28;20029;-70
2021/01/17 03:51:23;;;;;;;9.32;3.85;;;;;;;-3.76;80.41;100863.84;5065042;28;20021;-71
2021/01/17 03:53:49;;;;;;;4.53;2.80;;;;;;;-3.87;80.68;100867.41;5066038;28;20057;-73
2021/01/17 03:56:14;;;;;;;6.55;3.38;;;;;;;-3.85;80.67;100870.91;5066046;28;20072;-71
2021/01/17 03:58:39;;;;;;;4.68;2.90;;;;;;;-3.86;81.28;100870.03;5066194;28;20028;-72
2021/01/17 04:01:05;;;;;;;8.60;4.75;;;;;;;-3.92;80.89;100863.72;5081368;28;20049;-71
2021/01/17 04:03:30;;;;;;;5.90;2.85;;;;;;;-3.93;81.08;100861.97;5066026;28;20024;-71
2021/01/17 04:05:55;;;;;;;3.22;2.22;;;;;;;-3.89;80.90;100857.16;5066023;28;20462;-71
2021/01/17 04:08:21;;;;;;;3.72;1.90;;;;;;;-3.88;80.93;100863.09;5065933;28;20075;-70
2021/01/17 04:10:46;;;;;;;7.30;3.65;;;;;;;-3.93;81.14;100872.13;5065642;28;20111;-71
2021/01/17 04:13:11;;;;;;;8.75;3.90;;;;;;;-3.99;81.65;100872.63;5064312;28;20512;-70
2021/01/17 04:15:37;;;;;;;8.77;4.68;;;;;;;-3.94;81.79;100867.81;5065861;28;20028;-71
2021/01/17 04:18:02;;;;;;;5.25;2.47;;;;;;;-3.81;81.34;100872.84;5065935;28;20130;-72
2021/01/17 04:20:28;;;;;;;6.93;3.72;;;;;;;-3.90;81.18;100859.63;5065312;28;20039;-71
2021/01/17 04:22:53;;;;;;;4.90;2.92;;;;;;;-3.85;81.49;100873.47;5065450;28;20021;-71
2021/01/17 04:25:19;;;;;;;4.03;2.55;;;;;;;-3.83;81.35;100868.47;5065408;28;20029;-70
2021/01/17 04:27:45;;;;;;;5.57;3.83;;;;;;;-3.87;81.90;100872.47;5065511;28;20087;-71
2021/01/17 04:30:10;;;;;;;9.38;4.10;;;;;;;-3.86;81.98;100875.09;5080961;28;20075;-71
2021/01/17 04:32:39;;;;;;;4.35;1.35;;;;;;;-3.78;81.93;100877.19;5065347;28;20267;-71
2021/01/17 04:35:05;;;;;;;7.57;3.35;;;;;;;-3.80;81.70;100874.56;5065295;28;20017;-70
2021/01/17 04:37:31;;;;;;;4.90;2.50;;;;;;;-3.66;81.22;100869.44;5065246;28;20488;-71
2021/01/17 04:39:56;;;;;;;3.05;1.90;;;;;;;-3.76;81.65;100865.50;5065146;28;20033;-72
2021/01/17 04:42:23;;;;;;;3.70;2.22;;;;;;;-3.77;81.75;100879.81;5080592;28;20013;-71
2021/01/17 04:44:53;;;;;;;6.97;3.03;;;;;;;-3.68;81.25;100871.00;5065270;28;20029;-71
2021/01/17 04:47:20;;;;;;;4.13;2.55;;;;;;;-3.75;81.49;100868.09;5065242;28;20051;-71
2021/01/17 04:49:48;;;;;;;5.95;2.90;;;;;;;-3.78;81.71;100875.56;5065147;28;20560;-71
2021/01/17 04:52:14;;;;;;;7.97;3.55;;;;;;;-3.77;81.50;100874.75;5065002;28;20091;-71
2021/01/17 04:54:40;;;;;;;6.53;4.40;;;;;;;-3.79;82.03;100875.47;5064794;28;20618;-71
2021/01/17 04:57:23;;;;;;;7.68;2.28;;;;;;;-3.72;81.99;100864.00;5064868;28;20045;-72
2021/01/17 05:00:09;;;;;;;7.03;3.63;;;;;;;-3.68;81.96;100871.00;5065040;28;20021;-71
2021/01/17 05:02:56;;;;;;;5.57;3.28;;;;;;;-3.67;82.10;100866.00;5064948;28;20025;-71
2021/01/17 05:05:23;;;;;;;4.07;1.90;;;;;;;-3.61;82.01;100857.88;5064813;28;20532;-71
2021/01/17 05:07:53;;;;;;;8.45;3.88;;;;;;;-3.57;81.75;100869.94;5064846;28;20029;-71
2021/01/17 05:10:33;;;;;;;4.13;2.45;;;;;;;-3.51;81.84;100869.41;5064553;28;20079;-71
2021/01/17 05:13:10;;;;;;;7.07;4.30;;;;;;;-3.57;81.88;100871.59;5064476;28;20025;-70
2021/01/17 05:15:41;;;;;;;6.18;3.50;;;;;;;-3.53;81.82;100874.41;5064747;28;20021;-71
2021/01/17 05:18:07;;;;;;;9.25;4.70;;;;;;;-3.43;81.53;100877.47;5064553;28;20059;-72
2021/01/17 05:20:33;;;;;;;8.70;4.57;;;;;;;-3.45;81.40;100874.84;5063151;28;20029;-71
2021/01/17 05:22:59;;;;;;;9.88;4.72;;;;;;;-3.46;81.55;100873.09;5064884;28;20067;-72
2021/01/17 05:25:28;;;;;;;6.32;3.25;;;;;;;-3.49;81.89;100871.25;5064243;28;20021;-71
2021/01/17 05:27:55;;;;;;;9.75;5.38;;;;;;;-3.46;81.82;100875.63;5062946;28;20051;-71
2021/01/17 05:30:21;;;;;;;6.70;3.28;;;;;;;-3.43;81.60;100869.84;5063664;28;20029;-71
2021/01/17 05:32:54;;;;;;;11.45;5.28;;;;;;;-3.48;81.96;100869.59;5079215;28;20037;-70
2021/01/17 05:35:22;;;;;;;7.22;3.97;;;;;;;-3.51;82.26;100871.94;5064028;28;20036;-70
2021/01/17 05:37:54;;;;;;;6.53;1.65;;;;;;;-3.30;81.81;100873.94;5079738;28;20098;-70
2021/01/17 05:40:21;;;;;;;4.53;2.65;;;;;;;-3.43;82.03;100880.00;5063409;28;20078;-70
2021/01/17 05:42:47;;;;;;;4.68;2.72;;;;;;;-3.42;82.10;100879.22;5063481;28;20553;-71
2021/01/17 05:45:24;;;;;;;4.93;2.10;;;;;;;-3.53;82.52;100876.94;5064222;28;20033;-71
2021/01/17 05:47:54;;;;;;;2.72;1.38;;;;;;;-3.44;82.41;100878.25;5064056;28;20060;-71
2021/01/17 05:50:20;;;;;;;4.55;2.42;;;;;;;-3.37;82.16;100887.97;5064050;28;20466;-71
2021/01/17 05:52:56;;;;;;;7.45;3.97;;;;;;;-3.47;82.51;100888.25;5079244;28;20047;-71
2021/01/17 05:55:47;;;;;;;8.63;4.45;;;;;;;-3.47;82.71;100890.78;5063445;28;20081;-71
2021/01/17 05:58:33;;;;;;;5.40;3.08;;;;;;;-3.39;82.55;100892.09;5079156;28;20021;-71
2021/01/17 06:01:15;;;;;;;6.18;2.97;;;;;;;-3.26;82.48;100886.03;5063872;28;20390;-70
2021/01/17 06:03:49;;;;;;;8.32;4.00;;;;;;;-3.39;82.06;100880.28;5063591;28;20025;-71
2021/01/17 06:06:23;;;;;;;6.97;4.38;;;;;;;-3.53;82.54;100876.94;5063610;28;20020;-70
2021/01/17 06:08:52;;;;;;;6.55;4.07;;;;;;;-3.51;82.97;100880.44;5063728;28;20025;-71
2021/01/17 06:11:19;;;;;;;10.38;4.78;;;;;;;-3.44;83.06;100880.78;5063678;28;20355;-69
2021/01/17 06:13:53;;;;;;;8.80;4.22;;;;;;;-3.40;83.07;100878.50;5063354;28;20028;-71
2021/01/17 06:16:22;;;;;;;9.43;4.15;;;;;;;-3.29;82.66;100884.19;5063732;28;20556;-72
2021/01/17 06:18:59;;;;;;;8.68;4.10;;;;;;;-3.40;82.59;100875.09;5062116;28;20025;-72
2021/01/17 06:21:26;;;;;;;8.73;4.78;;;;;;;-3.28;82.58;100888.50;5062321;28;20021;-73
2021/01/17 06:23:55;;;;;;;9.32;4.57;;;;;;;-3.36;82.63;100880.47;5063123;28;20052;-73
2021/01/17 06:26:28;;;;;;;10.93;5.32;;;;;;;-3.24;82.33;100887.88;5063515;28;20032;-73
2021/01/17 06:28:53;;;;;;;8.13;3.80;;;;;;;-3.34;82.23;100869.50;5063423;28;20251;-73
2021/01/17 06:31:27;;;;;;;6.13;2.13;;;;;;;-3.24;82.45;100890.41;5063241;28;20040;-72
2021/01/17 06:34:01;;;;;;;11.88;5.95;;;;;;;-3.36;82.50;100879.56;5063201;28;20715;-71
2021/01/17 06:36:29;;;;;;;10.65;5.32;;;;;;;-3.36;82.79;100888.06;5063365;28;20053;-71
2021/01/17 06:38:54;;;;;;;9.32;4.75;;;;;;;-3.34;82.10;100872.91;5062963;28;20028;-71
2021/01/17 06:41:38;;;;;;;12.70;6.10;;;;;;;-3.31;82.43;100903.56;5063551;28;20432;-71
2021/01/17 06:44:11;;;;;;;12.48;6.38;;;;;;;-3.28;82.87;100898.66;5065979;28;20021;-71
2021/01/17 06:46:46;;;;;;;10.05;5.72;;;;;;;-3.22;82.79;100902.31;5066357;28;20032;-72
2021/01/17 06:49:18;;;;;;;11.30;5.72;;;;;;;-3.17;82.72;100903.44;5067420;28;20021;-72
2021/01/17 06:51:44;;;;;;;12.55;4.63;;;;;;;-3.12;82.58;100897.84;5067319;28;20021;-72
2021/01/17 06:54:10;;;;;;;12.05;5.68;;;;;;;-3.14;82.67;100908.69;5066797;28;20028;-72
2021/01/17 06:56:36;;;;;;;8.93;4.47;;;;;;;-3.36;82.50;100880.47;5066971;28;20064;-73
2021/01/17 06:59:02;;;;;;;13.13;5.32;;;;;;;-3.11;82.43;100908.88;5065825;28;20111;-70
2021/01/17 07:01:29;;;;;;;14.90;3.83;;;;;;;-3.09;82.24;100907.28;5067210;28;20033;-69
2021/01/17 07:03:57;;;;;;;7.50;3.58;;;;;;;-2.96;81.51;100908.84;5066981;28;20531;-69
2021/01/17 07:07:00;;;;;;;10.45;4.95;;;;;;;-3.19;82.27;100910.09;5067376;28;20029;-69
2021/01/17 07:09:40;;;;;;;13.77;5.07;;;;;;;-3.24;82.70;100910.72;5066701;28;20032;-68
2021/01/17 07:12:32;;;;;;;9.85;4.95;;;;;;;-3.17;82.49;100908.53;5066960;28;20021;-69
2021/01/17 07:15:04;;;;;;;13.95;6.15;;;;;;;-3.22;82.98;100920.09;5066705;28;20044;-71
2021/01/17 07:17:33;;;;;;;10.52;5.72;;;;;;;-3.21;83.13;100915.09;5066790;28;20029;-70
2021/01/17 07:20:10;;;;;;;10.27;5.57;;;;;;;-3.03;82.57;100915.25;5066881;28;20036;-70
2021/01/17 07:22:36;;;;;;;12.23;5.72;;;;;;;-3.03;82.50;100922.88;5067075;28;20017;-70
2021/01/17 07:25:05;;;;;;;12.05;4.90;;;;;;;-3.00;82.39;100927.25;5066623;28;20028;-71
2021/01/17 07:27:39;;;;;;;7.72;3.55;;;;;;;-2.96;82.26;100941.88;5066639;28;20029;-71
2021/01/17 07:30:12;;;;;;;9.88;4.82;;;;;;;-2.99;82.31;100932.41;5066645;28;20024;-71
2021/01/17 07:32:37;;;;;;;7.60;4.07;;;;;;;-2.93;82.19;100931.88;5066739;28;20021;-70
2021/01/17 07:35:10;;;;;;;4.28;2.85;;;;;;;-2.96;82.26;100928.28;5066646;28;20055;-72
2021/01/17 07:37:41;;;;;;;13.35;5.85;;;;;;;-3.09;82.44;100929.28;5066388;28;20458;-70
2021/01/17 07:40:08;;;;;;;12.45;4.88;;;;;;;-3.08;82.62;100941.19;5066452;28;20082;-71
2021/01/17 07:42:38;;;;;;;7.40;4.05;;;;;;;-3.13;83.17;100941.81;5066332;28;20037;-70
2021/01/17 07:45:18;;;;;;;16.10;6.38;;;;;;;-3.15;83.36;100938.31;5066510;28;20053;-70
2021/01/17 07:47:45;;;;;;;9.82;4.55;;;;;;;-3.07;83.20;100945.47;5066187;28;20029;-70
2021/01/17 07:50:12;;;;;;;9.73;5.20;;;;;;;-3.10;83.11;100943.66;5081786;28;20017;-70
2021/01/17 07:52:46;;;;;;;8.55;4.78;;;;;;;-3.06;83.20;100945.56;5066405;28;20033;-71
2021/01/17 07:55:13;;;;;;;11.27;5.82;;;;;;;-3.08;83.21;100943.75;5065094;28;20066;-71
2021/01/17 07:57:45;;;;;;;9.95;5.88;;;;;;;-3.05;83.37;100946.44;5066185;28;20093;-71
2021/01/17 08:00:11;;;;;;;9.38;4.53;;;;;;;-3.04;83.24;100944.00;5066534;28;20083;-71
2021/01/17 08:02:38;;;;;;;9.07;5.45;;;;;;;-3.03;83.31;100950.81;5065079;28;20457;-72
2021/01/17 08:05:04;;;;;;;11.55;4.72;;;;;;;-3.03;83.36;100958.44;5065909;28;20017;-72
2021/01/17 08:07:31;;;;;;;11.77;6.25;;;;;;;-3.03;83.33;100958.44;5066128;28;20431;-72
2021/01/17 08:09:56;;;;;;;11.82;5.43;;;;;;;-3.01;83.13;100951.78;5065692;28;20029;-72
2021/01/17 08:12:33;;;;;;;9.85;4.68;;;;;;;-2.94;83.14;100957.22;5065731;28;20086;-71
2021/01/17 08:15:17;;;;;;;15.43;7.47;;;;;;;-2.95;83.27;100957.97;5065978;28;20029;-73
2021/01/17 08:17:43;;;;;;;12.77;6.47;;;;;;;-2.96;83.15;100951.16;5065895;28;20025;-74
2021/01/17 08:20:08;;;;;;;12.50;6.55;;;;;;;-2.95;83.29;100947.81;5066011;28;20029;-74
2021/01/17 08:22:34;;;;;;;10.70;5.35;;;;;;;-2.82;83.16;100962.09;5065970;28;20616;-74
2021/01/17 08:25:02;;;;;;;15.80;5.85;;;;;;;-2.82;82.97;100968.03;5080924;28;20044;-75
2021/01/17 08:27:30;;;;;;;13.55;6.60;;;;;;;-2.86;82.91;100966.13;5065797;28;20048;-74
2021/01/17 08:30:08;;;;;;;10.20;5.10;;;;;;;-2.82;83.07;100969.72;5065822;28;20047;-74
2021/01/17 08:32:48;;;;;;;14.13;6.63;;;;;;;-2.84;83.10;100963.69;5065972;28;20021;-73
2021/01/17 08:35:13;;;;;;;6.85;3.40;;;;;;;-2.80;83.25;100971.56;5064423;28;20044;-74
2021/01/17 08:37:43;;;;;;;15.77;6.20;;;;;;;-2.85;83.13;100962.81;5065504;28;20025;-75
2021/01/17 08:40:10;;;;;;;11.13;5.38;;;;;;;-2.83;82.67;100961.22;5065547;28;20032;-72
2021/01/17 08:42:57;;;;;;;14.27;6.75;;;;;;;-2.89;83.18;100960.88;5065542;28;20020;-73
2021/01/17 08:45:22;;;;;;;9.20;4.28;;;;;;;-2.80;83.55;100966.47;5080578;28;20025;-73
2021/01/17 08:47:49;;;;;;;11.48;4.95;;;;;;;-2.72;83.23;100966.00;5065082;28;20140;-75
2021/01/17 08:50:32;;;;;;;10.68;5.63;;;;;;;-2.72;83.01;100968.56;5080565;28;20021;-73
2021/01/17 08:53:13;;;;;;;10.07;4.38;;;;;;;-2.72;82.92;100969.44;5063493;28;20049;-74
2021/01/17 08:55:49;;;;;;;9.40;4.43;;;;;;;-2.77;83.01;100973.38;5079832;28;20117;-74
2021/01/17 08:58:17;;;;;;;11.02;5.53;;;;;;;-2.71;82.72;100967.75;5065221;28;20036;-73
2021/01/17 09:00:48;;;;;;;14.10;5.82;;;;;;;-2.73;83.16;100977.84;5065145;28;20033;-74
2021/01/17 09:03:33;;;;;;;15.77;6.82;;;;;;;-2.71;83.29;100972.84;5080394;28;20017;-74
2021/01/17 09:06:01;;;;;;;12.40;6.32;;;;;;;-2.69;83.61;100982.31;5079235;28;20044;-74
2021/01/17 09:08:28;;;;;;;10.55;5.05;;;;;;;-2.67;83.43;100982.41;5064708;28;20036;-75
2021/01/17 09:10:56;;;;;;;11.25;6.20;;;;;;;-2.66;83.57;100979.94;5064785;28;20579;-75
2021/01/17 09:13:32;;;;;;;8.70;4.30;;;;;;;-2.64;83.60;100985.09;5064736;28;20025;-74
2021/01/17 09:16:03;;;;;;;12.40;5.93;;;;;;;-2.51;82.98;100990.06;5064722;28;20337;-73
2021/01/17 09:18:35;;;;;;;11.48;5.95;;;;;;;-2.57;82.85;100983.78;5063349;28;20025;-75
2021/01/17 09:21:00;;;;;;;;;;;;;;;-2.45;82.90;100998.81;5065213;28;20028;-75
2021/01/17 09:23:26;;;;;;;8.52;4.32;;;;;;;-2.62;83.13;100983.53;5064399;28;19909;-75
2021/01/17 09:26:00;;;;;;;10.75;3.03;;;;;;;-2.43;82.59;101004.88;5064301;28;20025;-75
2021/01/17 09:28:26;;;;;;;9.30;4.43;;;;;;;-2.50;82.87;101002.00;5064690;28;20025;-76
2021/01/17 09:30:54;;;;;;;8.07;4.85;;;;;;;-2.55;82.87;101003.41;5064498;28;20024;-77
2021/01/17 09:33:20;;;;;;;11.88;5.88;;;;;;;-2.62;82.91;100986.06;5064104;28;20524;-76
2021/01/17 09:35:48;;;;;;;12.13;6.25;;;;;;;-2.56;83.17;101000.78;5064407;28;20104;-74
2021/01/17 09:38:15;;;;;;;4.97;3.17;;;;;;;-2.53;83.22;101001.84;5064331;28;20239;-77
2021/01/17 09:40:44;;;;;;;11.15;4.60;;;;;;;-2.40;83.01;101005.03;5064404;28;20073;-74
2021/01/17 09:43:10;;;;;;;6.63;3.53;;;;;;;-2.41;83.02;100995.66;5079303;28;20017;-76
2021/01/17 09:45:35;;;;;;;10.45;5.50;;;;;;;-2.43;83.22;101002.31;5064209;28;20060;-75
2021/01/17 09:48:01;;;;;;;13.98;5.28;;;;;;;-2.42;83.31;101006.63;5063958;28;20028;-73
2021/01/17 09:50:34;;;;;;;5.35;2.60;;;;;;;-2.32;83.25;101005.44;5063805;28;20029;-76
2021/01/17 09:53:08;;;;;;;13.52;4.53;;;;;;;-2.31;83.57;101020.78;5064012;28;20457;-75
2021/01/17 09:55:41;;;;;;;9.55;4.43;;;;;;;-2.33;83.53;101003.72;5063640;28;20268;-76
2021/01/17 09:58:09;;;;;;;19.45;6.60;;;;;;;-2.24;83.48;101012.69;5064148;28;20042;-76
2021/01/17 10:00:35;;;;;;;12.50;6.38;;;;;;;-2.20;83.50;101016.28;5064087;28;20032;-76
2021/01/17 10:03:11;;;;;;;9.13;5.47;;;;;;;-2.16;83.75;101013.13;5064323;28;20079;-75
2021/01/17 10:05:38;;;;;;;10.43;5.32;;;;;;;-2.12;83.33;100996.31;5063948;28;20065;-75
2021/01/17 10:08:08;;;;;;;16.65;6.70;;;;;;;-2.15;83.16;101002.16;5063895;28;20025;-76
2021/01/17 10:10:35;;;;;;;11.00;6.05;;;;;;;-2.05;83.41;101016.25;5062587;28;20025;-73
2021/01/17 10:13:00;;;;;;;11.32;6.47;;;;;;;-2.02;83.58;101007.88;5062641;28;20101;-74
2021/01/17 10:15:26;;;;;;;10.30;5.45;;;;;;;-1.90;83.10;101015.28;5079315;28;20021;-77
2021/01/17 10:17:55;;;;;;;13.10;6.38;;;;;;;-1.90;82.83;101016.16;5063583;28;20088;-74
2021/01/17 10:20:31;;;;;;;9.30;4.45;;;;;;;-1.94;83.19;101004.06;5063840;28;20025;-75
2021/01/17 10:23:32;;;;;;;11.07;5.82;;;;;;;-1.85;83.24;101021.47;5063685;28;20025;-74
2021/01/17 10:25:58;;;;;;;12.05;5.30;;;;;;;-1.74;82.53;101016.94;5063733;28;20054;-74
2021/01/17 10:28:28;;;;;;;3.70;2.33;;;;;;;-1.68;82.22;101014.75;5064213;28;20029;-75
2021/01/17 10:30:59;;;;;;;8.70;3.75;;;;;;;-1.76;82.21;101018.56;5064737;28;20040;-74
2021/01/17 10:33:28;;;;;;;13.33;6.00;;;;;;;-1.83;82.24;101017.34;5064548;28;20025;-75
2021/01/17 10:35:54;;;;;;;13.75;4.57;;;;;;;-1.78;82.40;101031.22;5064234;28;20285;-75
2021/01/17 10:38:20;;;;;;;6.25;3.63;;;;;;;-1.60;81.48;101029.53;5064209;28;20029;-76
2021/01/17 10:40:47;;;;;;;12.88;6.80;;;;;;;-1.75;81.86;101026.28;5063860;28;20130;-75
2021/01/17 10:43:23;;;;;;;10.48;5.65;;;;;;;-1.73;81.64;101015.28;5063968;28;20084;-76
2021/01/17 10:46:07;;;;;;;9.02;4.43;;;;;;;-1.80;82.20;101025.16;5063643;28;20017;-76
2021/01/17 10:48:45;;;;;;;12.77;7.05;;;;;;;-1.86;82.41;101012.09;5063977;28;20552;-76
2021/01/17 10:51:16;;;;;;;12.48;5.55;;;;;;;-1.78;82.74;101013.38;5062592;28;20100;-77
2021/01/17 10:53:49;;;;;;;11.68;5.70;;;;;;;-1.74;82.76;101011.84;5063556;28;20055;-76
2021/01/17 10:56:20;;;;;;;11.35;5.32;;;;;;;-1.71;82.67;101011.16;5063162;28;20119;-74
2021/01/17 10:58:46;;;;;;;13.20;5.87;;;;;;;-1.72;82.22;101006.84;5063960;28;20032;-75
2021/01/17 11:01:14;;;;;;;10.70;5.25;;;;;;;-1.73;82.34;101011.06;5063512;28;20067;-75
2021/01/17 11:03:41;;;;;;;13.88;6.97;;;;;;;-1.76;82.60;101001.59;5063507;28;20017;-73
2021/01/17 11:06:15;;;;;;;6.85;3.38;;;;;;;-1.61;82.23;101003.19;5063377;28;20025;-76
2021/01/17 11:08:50;;;;;;;4.63;3.20;;;;;;;-1.52;81.79;100998.53;5063283;28;20025;-76
2021/01/17 11:11:16;;;;;;;12.05;3.80;;;;;;;-1.59;81.80;101005.81;5063060;28;20035;-75
2021/01/17 11:13:42;;;;;;;5.60;3.45;;;;;;;-1.60;81.59;101004.94;5061867;28;20020;-75
2021/01/17 11:16:08;;;;;;;12.07;5.68;;;;;;;-1.71;81.91;100993.34;5063045;28;20028;-76
2021/01/17 11:18:36;;;;;;;6.03;3.28;;;;;;;-1.76;81.60;100960.84;5063122;28;20021;-75
2021/01/17 11:21:04;;;;;;;11.10;4.60;;;;;;;-1.59;81.30;101008.34;5063054;28;20072;-74
2021/01/17 11:23:30;;;;;;;6.05;3.25;;;;;;;-1.62;81.68;101003.97;5063014;28;20017;-72
2021/01/17 11:25:58;;;;;;;7.47;4.70;;;;;;;-1.70;81.60;100998.50;5063058;28;20029;-75
2021/01/17 11:28:25;;;;;;;12.35;4.93;;;;;;;-1.67;81.73;101001.22;5061659;28;20028;-75
2021/01/17 11:30:51;;;;;;;7.25;4.47;;;;;;;-1.69;81.91;101001.94;5066556;28;20381;-74
2021/01/17 11:33:17;;;;;;;7.03;3.90;;;;;;;-1.87;81.95;100970.50;5066567;28;20080;-74
2021/01/17 11:35:42;;;;;;;4.05;2.88;;;;;;;-1.67;82.15;100991.03;5065107;28;20090;-76